createdAt,value
2019-03-10T00:01:44.755Z,78.10
2019-03-10T00:04:14.959Z,78.73
2019-03-10T00:06:45.506Z,78.34
2019-03-10T00:09:16.849Z,79.02
2019-03-10T00:11:47.170Z,78.12
2019-03-10T00:14:17.661Z,78.11
2019-03-10T00:16:50.380Z,77.76
2019-03-10T00:19:21.012Z,78.39
2019-03-10T00:21:51.436Z,79.74
2019-03-10T00:24:22.372Z,79.63
2019-03-10T00:26:53.051Z,80.04
2019-03-10T00:29:26.183Z,79.77
2019-03-10T00:31:57.540Z,78.82
2019-03-10T00:34:27.950Z,77.82
2019-03-10T00:37:00.030Z,76.93
2019-03-10T00:39:42.635Z,76.15
2019-03-10T00:42:26.136Z,75.59
2019-03-10T00:45:33.189Z,74.96
2019-03-10T00:48:30.917Z,75.15
2019-03-10T00:51:18.856Z,74.92
2019-03-10T00:53:49.792Z,74.74
2019-03-10T00:56:20.116Z,74.73
2019-03-10T00:58:50.850Z,75.44
2019-03-10T01:01:21.480Z,76.10
2019-03-10T01:03:52.118Z,76.45
2019-03-10T01:06:23.457Z,76.26
2019-03-10T01:08:54.159Z,76.24
2019-03-10T01:11:24.919Z,76.64
2019-03-10T01:13:55.652Z,76.60
2019-03-10T01:16:26.278Z,76.33
2019-03-10T01:18:56.911Z,76.23
2019-03-10T01:21:28.191Z,75.85
2019-03-10T01:23:59.401Z,74.54
2019-03-10T01:26:30.029Z,73.27
2019-03-10T01:29:00.767Z,73.01
2019-03-10T01:31:57.609Z,72.56
2019-03-10T01:34:34.076Z,72.30
2019-03-10T01:37:08.482Z,72.29
2019-03-10T01:39:39.036Z,71.98
2019-03-10T01:42:09.852Z,71.55
2019-03-10T01:44:40.412Z,71.88
2019-03-10T01:47:11.582Z,71.80
2019-03-10T01:49:42.367Z,71.36
2019-03-10T01:52:13.090Z,70.71
2019-03-10T01:54:43.680Z,71.04
2019-03-10T01:57:14.249Z,70.79
2019-03-10T01:59:45.513Z,70.73
2019-03-10T02:02:24.912Z,70.16
2019-03-10T02:04:48.631Z,70.18
2019-03-10T02:07:19.433Z,70.19
2019-03-10T02:09:50.160Z,70.22
2019-03-10T02:12:21.646Z,70.30
2019-03-10T02:14:53.996Z,70.69
2019-03-10T02:17:24.410Z,70.48
2019-03-10T02:19:56.782Z,70.97
2019-03-10T02:22:27.407Z,71.77
2019-03-10T02:24:57.981Z,71.56
2019-03-10T02:27:29.487Z,70.99
2019-03-10T02:29:59.913Z,70.33
2019-03-10T02:32:31.364Z,70.82
2019-03-10T02:35:03.951Z,70.89
2019-03-10T02:37:35.005Z,70.47
2019-03-10T02:40:06.808Z,70.58
2019-03-10T02:42:37.060Z,70.26
2019-03-10T02:45:09.795Z,70.50
2019-03-10T02:47:40.986Z,70.69
2019-03-10T02:50:11.817Z,70.64
2019-03-10T02:52:42.421Z,71.37
2019-03-10T02:55:13.282Z,71.53
2019-03-10T02:57:44.016Z,72.35
2019-03-10T03:00:14.641Z,72.61
2019-03-10T03:02:45.493Z,72.82
2019-03-10T03:05:16.111Z,72.85
2019-03-10T03:07:48.275Z,73.50
2019-03-10T03:10:21.263Z,74.20
2019-03-10T03:12:52.197Z,74.83
2019-03-10T03:15:23.491Z,75.57
2019-03-10T03:17:53.866Z,76.27
2019-03-10T03:20:24.600Z,76.48
2019-03-10T03:22:56.047Z,76.72
2019-03-10T03:25:26.340Z,76.76
2019-03-10T03:27:56.900Z,76.65
2019-03-10T03:30:28.445Z,76.50
2019-03-10T03:32:58.861Z,76.46
2019-03-10T03:35:57.123Z,76.55
2019-03-10T03:38:36.729Z,76.34
2019-03-10T03:41:23.267Z,76.30
2019-03-10T03:43:55.467Z,75.94
2019-03-10T03:46:26.017Z,76.11
2019-03-10T03:48:57.336Z,76.08
2019-03-10T03:51:28.379Z,75.82
2019-03-10T03:53:58.806Z,75.88
2019-03-10T03:56:29.638Z,76.10
2019-03-10T03:59:00.613Z,75.91
2019-03-10T04:01:33.899Z,76.48
2019-03-10T04:04:06.546Z,77.23
2019-03-10T04:06:37.145Z,77.20
2019-03-10T04:09:10.266Z,77.35
2019-03-10T04:11:41.730Z,78.29
2019-03-10T04:14:12.005Z,78.83
2019-03-10T04:16:42.526Z,78.89
2019-03-10T04:19:13.396Z,79.42
2019-03-10T04:21:44.128Z,79.57
2019-03-10T04:24:14.959Z,79.51
2019-03-10T04:26:45.591Z,79.09
2019-03-10T04:29:16.840Z,79.36
2019-03-10T04:31:49.322Z,78.93
2019-03-10T04:34:19.969Z,79.00
2019-03-10T04:36:50.467Z,78.76
2019-03-10T04:39:21.097Z,78.69
2019-03-10T04:41:51.840Z,78.74
2019-03-10T04:44:22.565Z,78.59
2019-03-10T04:46:54.117Z,78.20
2019-03-10T04:49:24.441Z,78.07
2019-03-10T04:51:55.376Z,78.03
2019-03-10T04:54:31.318Z,78.01
2019-03-10T04:57:03.706Z,77.97
2019-03-10T04:59:35.233Z,77.93
2019-03-10T05:02:05.883Z,77.77
2019-03-10T05:04:38.943Z,77.79
2019-03-10T05:07:09.502Z,77.67
2019-03-10T05:09:40.442Z,77.45
2019-03-10T05:12:11.207Z,77.26
2019-03-10T05:14:43.027Z,76.71
2019-03-10T05:17:14.270Z,76.03
2019-03-10T05:19:44.526Z,75.73
2019-03-10T05:22:15.528Z,75.25
2019-03-10T05:24:47.696Z,74.72
2019-03-10T05:27:18.936Z,74.57
2019-03-10T05:29:49.362Z,74.67
2019-03-10T05:32:20.098Z,74.06
2019-03-10T05:34:52.674Z,73.63
2019-03-10T05:37:23.404Z,73.60
2019-03-10T05:39:55.716Z,73.24
2019-03-10T05:42:27.431Z,73.03
2019-03-10T05:44:58.066Z,72.46
2019-03-10T05:47:28.767Z,72.42
2019-03-10T05:50:01.061Z,72.06
2019-03-10T05:52:32.051Z,71.61
2019-03-10T05:55:03.166Z,71.63
2019-03-10T05:57:33.785Z,71.15
2019-03-10T06:00:07.676Z,70.38
2019-03-10T06:02:38.307Z,69.83
2019-03-10T06:05:09.143Z,69.61
2019-03-10T06:07:40.734Z,68.80
2019-03-10T06:10:11.077Z,68.80
2019-03-10T06:12:41.862Z,69.31
2019-03-10T06:15:12.539Z,68.89
2019-03-10T06:17:43.319Z,68.64
2019-03-10T06:20:13.948Z,68.49
2019-03-10T06:22:45.206Z,68.44
2019-03-10T06:25:15.824Z,67.48
2019-03-10T06:27:48.088Z,66.47
2019-03-10T06:30:20.257Z,65.62
2019-03-10T06:32:52.524Z,65.46
2019-03-10T06:35:23.261Z,64.77
2019-03-10T06:37:55.942Z,64.72
2019-03-10T06:40:32.108Z,64.63
2019-03-10T06:42:59.183Z,65.20
2019-03-10T06:45:29.975Z,64.95
2019-03-10T06:48:01.115Z,65.07
2019-03-10T06:50:34.101Z,65.08
2019-03-10T06:53:04.361Z,63.94
2019-03-10T06:55:35.156Z,63.69
2019-03-10T06:58:05.760Z,63.22
2019-03-10T07:00:36.317Z,62.37
2019-03-10T07:03:06.948Z,61.93
2019-03-10T07:05:37.270Z,62.25
2019-03-10T07:08:08.413Z,61.39
2019-03-10T07:10:41.091Z,60.16
2019-03-10T07:13:11.923Z,60.46
2019-03-10T07:15:42.867Z,60.46
2019-03-10T07:18:13.617Z,60.54
2019-03-10T07:20:44.528Z,60.40
2019-03-10T07:23:16.900Z,59.85
2019-03-10T07:25:49.376Z,59.12
2019-03-10T07:28:33.558Z,57.59
2019-03-10T07:31:05.730Z,57.12
2019-03-10T07:33:54.647Z,58.16
2019-03-10T07:36:43.711Z,58.15
2019-03-10T07:39:17.529Z,57.32
2019-03-10T07:41:50.197Z,58.60
2019-03-10T07:44:22.292Z,57.95
2019-03-10T07:46:58.416Z,58.05
2019-03-10T07:49:30.992Z,58.50
2019-03-10T07:52:20.678Z,58.86
2019-03-10T07:55:11.577Z,58.92
2019-03-10T07:58:04.636Z,58.51
2019-03-10T08:00:36.896Z,58.02
2019-03-10T08:03:11.926Z,58.42
2019-03-10T08:06:02.729Z,58.37
2019-03-10T08:08:38.283Z,58.35
2019-03-10T08:11:19.553Z,57.93
2019-03-10T08:13:57.251Z,58.06
2019-03-10T08:16:29.316Z,58.95
2019-03-10T08:19:07.492Z,58.04
2019-03-10T08:21:58.118Z,57.51
2019-03-10T08:24:34.587Z,58.13
2019-03-10T08:27:09.556Z,57.90
2019-03-10T08:29:44.959Z,57.83
2019-03-10T08:32:34.744Z,57.51
2019-03-10T08:35:13.977Z,56.54
2019-03-10T08:37:55.356Z,55.17
2019-03-10T08:40:37.719Z,53.11
2019-03-10T08:43:19.349Z,53.34
2019-03-10T08:46:01.448Z,53.68
2019-03-10T08:48:37.822Z,55.13
2019-03-10T08:51:15.812Z,55.59
2019-03-10T08:53:51.053Z,55.31
2019-03-10T08:56:30.075Z,54.50
2019-03-10T08:59:14.431Z,53.68
2019-03-10T09:01:50.487Z,53.57
2019-03-10T09:04:25.006Z,53.01
2019-03-10T09:07:13.656Z,53.16
2019-03-10T09:09:52.112Z,53.20
2019-03-10T09:12:25.977Z,53.63
2019-03-10T09:15:05.491Z,53.15
2019-03-10T09:17:40.860Z,51.55
2019-03-10T09:20:22.141Z,50.88
2019-03-10T09:23:06.633Z,49.46
2019-03-10T09:25:38.185Z,49.37
2019-03-10T09:28:13.384Z,49.01
2019-03-10T09:30:58.041Z,48.01
2019-03-10T09:33:42.363Z,49.42
2019-03-10T09:36:20.194Z,48.36
2019-03-10T09:39:09.051Z,45.27
2019-03-10T09:41:58.855Z,43.37
2019-03-10T09:44:34.026Z,46.60
2019-03-10T09:47:09.309Z,46.00
2019-03-10T09:49:58.167Z,44.59
2019-03-10T09:52:33.644Z,43.44
2019-03-10T09:55:19.388Z,39.66
2019-03-10T09:57:54.934Z,41.94
2019-03-10T10:00:27.291Z,44.90
2019-03-10T10:03:00.495Z,41.72
2019-03-10T10:05:45.463Z,39.19
2019-03-10T10:08:26.847Z,38.81
2019-03-10T10:11:02.693Z,37.99
2019-03-10T10:13:35.534Z,36.98
2019-03-10T10:16:13.954Z,35.63
2019-03-10T10:18:46.975Z,35.91
2019-03-10T10:21:18.750Z,35.01
2019-03-10T10:23:51.818Z,33.55
2019-03-10T10:26:35.738Z,32.12
2019-03-10T10:29:23.839Z,29.38
2019-03-10T10:31:56.273Z,28.86
2019-03-10T10:34:31.512Z,28.23
2019-03-10T10:37:13.002Z,30.85
2019-03-10T10:40:02.574Z,32.21
2019-03-10T10:42:46.828Z,30.37
2019-03-10T10:45:25.023Z,28.85
2019-03-10T10:47:58.941Z,30.93
2019-03-10T10:50:43.289Z,31.05
2019-03-10T10:53:27.865Z,28.92
2019-03-10T10:56:09.545Z,27.68
2019-03-10T10:58:51.013Z,27.83
2019-03-10T11:01:26.048Z,26.24
2019-03-10T11:03:58.931Z,25.65
2019-03-10T11:06:31.202Z,23.65
2019-03-10T11:09:15.553Z,24.20
2019-03-10T11:12:00.989Z,23.92
2019-03-10T11:14:42.310Z,23.62
2019-03-10T11:17:17.759Z,23.57
2019-03-10T11:20:08.143Z,23.33
2019-03-10T11:22:55.468Z,24.49
2019-03-10T11:25:27.836Z,24.34
2019-03-10T11:28:01.052Z,22.82
2019-03-10T11:30:33.202Z,24.89
2019-03-10T11:33:07.240Z,27.18
2019-03-10T11:35:42.239Z,29.93
2019-03-10T11:38:14.916Z,28.46
2019-03-10T11:40:47.237Z,26.56
2019-03-10T11:43:37.268Z,29.06
2019-03-10T11:46:26.248Z,31.46
2019-03-10T11:49:04.844Z,33.49
2019-03-10T11:51:42.646Z,34.52
2019-03-10T11:54:14.872Z,35.33
2019-03-10T11:56:50.455Z,35.52
2019-03-10T11:59:34.400Z,34.49
2019-03-10T12:02:15.565Z,35.01
2019-03-10T12:04:42.703Z,35.21
2019-03-10T12:07:17.454Z,35.98
2019-03-10T12:09:48.184Z,35.17
2019-03-10T12:12:18.818Z,34.04
2019-03-10T12:14:49.562Z,35.13
2019-03-10T12:17:23.655Z,35.53
2019-03-10T12:19:54.846Z,35.47
2019-03-10T12:22:26.500Z,34.92
2019-03-10T12:24:56.703Z,34.88
2019-03-10T12:27:27.509Z,34.84
2019-03-10T12:30:00.800Z,34.42
2019-03-10T12:32:33.381Z,34.08
2019-03-10T12:35:05.833Z,34.26
2019-03-10T12:37:36.080Z,35.30
2019-03-10T12:40:10.179Z,35.94
2019-03-10T12:42:41.018Z,36.08
2019-03-10T12:45:12.896Z,36.42
2019-03-10T12:47:44.130Z,36.11
2019-03-10T12:50:14.855Z,36.07
2019-03-10T12:52:45.073Z,36.13
2019-03-10T12:55:15.602Z,36.25
2019-03-10T12:57:47.768Z,36.48
2019-03-10T13:00:18.498Z,36.39
2019-03-10T13:02:49.847Z,36.81
2019-03-10T13:05:21.194Z,36.70
2019-03-10T13:07:54.387Z,36.78
2019-03-10T13:10:25.641Z,37.13
2019-03-10T13:12:56.266Z,37.23
2019-03-10T13:15:28.326Z,37.03
2019-03-10T13:17:59.290Z,37.42
2019-03-10T13:20:31.111Z,37.50
2019-03-10T13:23:03.153Z,37.97
2019-03-10T13:25:33.711Z,40.73
2019-03-10T13:28:04.151Z,45.94
2019-03-10T13:30:35.482Z,46.45
2019-03-10T13:33:05.599Z,50.00
2019-03-10T13:35:36.130Z,59.49
2019-03-10T13:38:10.478Z,63.99
2019-03-10T13:40:41.154Z,66.21
2019-03-10T13:43:11.495Z,68.83
2019-03-10T13:45:42.130Z,70.53
2019-03-10T13:48:12.655Z,70.57
2019-03-10T13:50:43.519Z,71.45
2019-03-10T13:53:14.523Z,73.08
2019-03-10T13:55:45.673Z,74.30
2019-03-10T13:58:15.900Z,74.96
2019-03-10T14:00:46.376Z,75.46
2019-03-10T14:03:17.764Z,75.62
2019-03-10T14:05:49.121Z,76.54
2019-03-10T14:08:19.630Z,78.67
2019-03-10T14:10:51.588Z,78.12
2019-03-10T14:13:22.191Z,77.19
2019-03-10T14:15:52.774Z,79.32
2019-03-10T14:18:23.799Z,77.86
2019-03-10T14:20:54.838Z,78.09
2019-03-10T14:23:25.268Z,79.84
2019-03-10T14:25:57.742Z,79.46
2019-03-10T14:28:29.906Z,78.17
2019-03-10T14:31:00.558Z,77.88
2019-03-10T14:33:31.366Z,78.57
2019-03-10T14:36:02.205Z,79.34
2019-03-10T14:38:32.693Z,79.31
2019-03-10T14:41:05.485Z,79.56
2019-03-10T14:43:35.645Z,77.32
2019-03-10T14:46:06.159Z,75.81
2019-03-10T14:48:36.788Z,77.05
2019-03-10T14:51:08.856Z,77.64
2019-03-10T14:53:39.481Z,78.93
2019-03-10T14:56:10.419Z,78.26
2019-03-10T14:58:41.253Z,78.78
2019-03-10T15:01:12.602Z,78.99
2019-03-10T15:03:43.031Z,79.02
2019-03-10T15:06:14.249Z,78.83
2019-03-10T15:08:46.420Z,79.11
2019-03-10T15:11:16.973Z,78.86
2019-03-10T15:13:47.800Z,79.39
2019-03-10T15:16:19.861Z,79.91
2019-03-10T15:18:52.952Z,80.26
2019-03-10T15:21:23.577Z,81.36
2019-03-10T15:23:56.264Z,80.78
2019-03-10T15:26:28.439Z,80.62
2019-03-10T15:28:58.950Z,80.69
2019-03-10T15:31:29.653Z,81.35
2019-03-10T15:34:01.241Z,80.96
2019-03-10T15:36:32.151Z,81.20
2019-03-10T15:39:03.628Z,81.95
2019-03-10T15:41:33.846Z,81.80
2019-03-10T15:44:04.681Z,82.50
2019-03-10T15:46:35.328Z,81.89
2019-03-10T15:49:05.836Z,81.06
2019-03-10T15:51:38.112Z,81.92
2019-03-10T15:54:08.644Z,81.75
2019-03-10T15:56:39.370Z,82.59
2019-03-10T15:59:10.535Z,81.40
2019-03-10T16:01:40.935Z,81.36
2019-03-10T16:04:17.114Z,81.66
2019-03-10T16:06:47.211Z,81.77
2019-03-10T16:09:17.762Z,81.45
2019-03-10T16:11:49.390Z,82.16
2019-03-10T16:14:22.296Z,82.28
2019-03-10T16:16:52.497Z,82.41
2019-03-10T16:19:23.956Z,82.34
2019-03-10T16:21:55.470Z,81.65
2019-03-10T16:24:26.949Z,81.89
2019-03-10T16:26:57.676Z,81.81
2019-03-10T16:29:28.005Z,81.83
2019-03-10T16:32:00.301Z,82.32
2019-03-10T16:34:32.638Z,82.17
2019-03-10T16:37:02.861Z,81.80
2019-03-10T16:39:33.390Z,80.60
2019-03-10T16:42:04.020Z,80.14
2019-03-10T16:44:35.365Z,80.33
2019-03-10T16:47:07.535Z,80.95
2019-03-10T16:49:38.159Z,79.35
2019-03-10T16:52:09.307Z,79.47
2019-03-10T16:54:39.651Z,79.39
2019-03-10T16:57:10.354Z,78.77
2019-03-10T16:59:40.890Z,79.38
2019-03-10T17:02:11.518Z,79.63
2019-03-10T17:04:42.213Z,79.30
2019-03-10T17:07:13.584Z,79.32
2019-03-10T17:09:43.982Z,79.67
2019-03-10T17:12:14.558Z,79.86
2019-03-10T17:14:45.899Z,79.41
2019-03-10T17:17:17.239Z,78.08
2019-03-10T17:19:47.770Z,76.11
2019-03-10T17:22:18.307Z,76.15
2019-03-10T17:24:48.828Z,75.84
2019-03-10T17:27:21.501Z,75.30
2019-03-10T17:29:52.235Z,73.96
2019-03-10T17:32:25.630Z,74.18
2019-03-10T17:34:56.059Z,73.90
2019-03-10T17:37:27.304Z,74.29
2019-03-10T17:39:59.570Z,74.04
2019-03-10T17:42:30.100Z,72.63
2019-03-10T17:45:00.800Z,72.31
2019-03-10T17:47:32.289Z,71.80
2019-03-10T17:50:02.702Z,70.82
2019-03-10T17:52:33.187Z,70.85
2019-03-10T17:55:04.971Z,70.90
2019-03-10T17:57:35.092Z,70.28
2019-03-10T18:00:14.172Z,68.80
2019-03-10T18:02:45.139Z,67.58
2019-03-10T18:05:15.702Z,68.65
2019-03-10T18:07:48.480Z,69.56
2019-03-10T18:10:19.111Z,68.81
2019-03-10T18:12:49.567Z,69.00
2019-03-10T18:15:20.952Z,67.76
2019-03-10T18:17:51.408Z,67.62
2019-03-10T18:20:24.167Z,67.95
2019-03-10T18:22:55.669Z,65.92
2019-03-10T18:25:27.570Z,66.22
2019-03-10T18:27:58.129Z,66.51
2019-03-10T18:30:29.135Z,65.84
2019-03-10T18:32:59.622Z,66.34
2019-03-10T18:35:31.204Z,65.72
2019-03-10T18:38:01.774Z,65.82
2019-03-10T18:40:32.507Z,65.29
2019-03-10T18:43:03.031Z,65.46
2019-03-10T18:45:33.666Z,64.91
2019-03-10T18:48:04.195Z,65.16
2019-03-10T18:50:35.643Z,64.21
2019-03-10T18:53:05.968Z,63.96
2019-03-10T18:55:36.593Z,63.48
2019-03-10T18:58:08.255Z,63.52
2019-03-10T19:00:38.731Z,62.77
2019-03-10T19:03:09.917Z,61.60
2019-03-10T19:05:40.752Z,61.53
2019-03-10T19:08:11.180Z,60.58
2019-03-10T19:10:41.780Z,61.38
2019-03-10T19:13:14.589Z,60.28
2019-03-10T19:15:46.240Z,60.97
2019-03-10T19:18:17.797Z,60.36
2019-03-10T19:20:47.976Z,60.68
2019-03-10T19:23:18.463Z,60.39
2019-03-10T19:25:50.914Z,60.58
2019-03-10T19:28:21.095Z,59.84
2019-03-10T19:30:52.481Z,60.39
2019-03-10T19:33:22.906Z,61.04
2019-03-10T19:35:53.538Z,60.37
2019-03-10T19:38:24.172Z,59.79
2019-03-10T19:40:54.693Z,60.11
2019-03-10T19:43:25.324Z,59.35
2019-03-10T19:45:55.823Z,59.69
2019-03-10T19:48:26.894Z,59.22
2019-03-10T19:50:57.112Z,59.77
2019-03-10T19:53:27.451Z,59.41
2019-03-10T19:55:58.680Z,58.82
2019-03-10T19:58:29.001Z,58.10
2019-03-10T20:00:59.732Z,58.59
2019-03-10T20:03:31.769Z,59.25
2019-03-10T20:06:02.735Z,58.79
2019-03-10T20:08:33.272Z,58.73
2019-03-10T20:11:04.202Z,58.17
2019-03-10T20:13:35.148Z,58.36
2019-03-10T20:16:06.690Z,57.02
2019-03-10T20:18:37.319Z,57.51
2019-03-10T20:21:07.908Z,57.38
2019-03-10T20:23:38.478Z,56.87
2019-03-10T20:26:09.518Z,55.35
2019-03-10T20:28:41.483Z,55.60
2019-03-10T20:31:11.904Z,55.05
2019-03-10T20:33:42.431Z,54.82
2019-03-10T20:36:12.979Z,54.32
2019-03-10T20:38:43.689Z,54.71
2019-03-10T20:41:14.728Z,54.92
2019-03-10T20:43:44.851Z,54.09
2019-03-10T20:46:15.479Z,53.98
2019-03-10T20:48:46.009Z,54.57
2019-03-10T20:51:18.480Z,54.36
2019-03-10T20:53:48.679Z,54.54
2019-03-10T20:56:19.058Z,54.38
2019-03-10T20:58:50.475Z,54.43
2019-03-10T21:01:21.537Z,54.72
2019-03-10T21:03:53.032Z,54.59
2019-03-10T21:06:23.999Z,54.90
2019-03-10T21:08:54.424Z,55.05
2019-03-10T21:11:25.671Z,55.12
2019-03-10T21:13:56.298Z,55.21
2019-03-10T21:16:26.855Z,55.34
2019-03-10T21:18:57.258Z,56.15
2019-03-10T21:21:27.783Z,56.47
2019-03-10T21:23:59.741Z,56.56
2019-03-10T21:26:30.387Z,56.63
2019-03-10T21:29:03.484Z,56.82
2019-03-10T21:31:32.863Z,57.52
2019-03-10T21:34:05.447Z,58.44
2019-03-10T21:36:37.473Z,59.39
2019-03-10T21:39:08.535Z,60.15
2019-03-10T21:41:39.166Z,61.16
2019-03-10T21:44:10.106Z,61.05
2019-03-10T21:46:40.532Z,61.10
2019-03-10T21:49:13.622Z,60.83
2019-03-10T21:51:44.770Z,60.80
2019-03-10T21:54:16.094Z,60.70
2019-03-10T21:56:46.338Z,60.47
2019-03-10T21:59:17.348Z,59.55
2019-03-10T22:01:47.999Z,59.77
2019-03-10T22:04:19.207Z,59.69
2019-03-10T22:06:49.665Z,59.44
2019-03-10T22:09:20.295Z,59.54
2019-03-10T22:11:53.283Z,59.85
2019-03-10T22:14:23.499Z,60.11
2019-03-10T22:16:54.017Z,60.87
2019-03-10T22:19:24.555Z,61.53
2019-03-10T22:21:55.073Z,62.08
2019-03-10T22:24:27.252Z,62.81
2019-03-10T22:26:58.496Z,63.15
2019-03-10T22:29:30.619Z,63.59
2019-03-10T22:32:01.905Z,63.55
2019-03-10T22:34:33.134Z,63.56
2019-03-10T22:37:03.822Z,63.27
2019-03-10T22:39:34.309Z,63.16
2019-03-10T22:42:04.940Z,63.45
2019-03-10T22:44:36.283Z,63.69
2019-03-10T22:47:06.916Z,63.46
2019-03-10T22:49:37.445Z,63.96
2019-03-10T22:52:08.091Z,64.31
2019-03-10T22:54:38.946Z,64.76
2019-03-10T22:57:09.822Z,64.87
2019-03-10T22:59:41.193Z,64.39
2019-03-10T23:02:13.884Z,64.43
2019-03-10T23:04:44.503Z,64.29
2019-03-10T23:07:15.234Z,64.05
2019-03-10T23:09:46.788Z,63.78
2019-03-10T23:12:18.600Z,63.41
2019-03-10T23:14:48.775Z,63.47
2019-03-10T23:17:19.759Z,62.71
2019-03-10T23:19:50.309Z,61.99
2019-03-10T23:22:21.166Z,61.70
2019-03-10T23:24:54.970Z,61.50
2019-03-10T23:27:25.421Z,61.47
2019-03-10T23:29:58.087Z,62.09
2019-03-10T23:32:29.169Z,61.53
2019-03-10T23:35:00.501Z,61.95
2019-03-10T23:37:32.725Z,62.26
2019-03-10T23:40:04.377Z,62.77
2019-03-10T23:42:34.912Z,61.84
2019-03-10T23:45:10.466Z,61.26
2019-03-10T23:47:40.885Z,61.13
2019-03-10T23:50:13.660Z,61.55
2019-03-10T23:52:44.392Z,61.11
2019-03-10T23:55:15.536Z,61.37
2019-03-10T23:57:45.677Z,61.08
